sensor_id;sensor_type;location;lat;lon;timestamp;P1;durP1;ratioP1;P2;durP2;ratioP2
5900;SDS011;2976;49.764;9.796;2023-07-31T00:00:14;15.83;;;1.90;;
5900;SDS011;2976;49.764;9.796;2023-07-31T00:02:40;4.90;;;1.57;;
5900;SDS011;2976;49.764;9.796;2023-07-31T00:05:07;6.03;;;1.77;;
5900;SDS011;2976;49.764;9.796;2023-07-31T00:07:33;4.47;;;2.40;;
5900;SDS011;2976;49.764;9.796;2023-07-31T00:09:59;4.37;;;1.40;;
5900;SDS011;2976;49.764;9.796;2023-07-31T00:12:24;3.70;;;1.50;;
5900;SDS011;2976;49.764;9.796;2023-07-31T00:14:50;3.07;;;1.13;;
5900;SDS011;2976;49.764;9.796;2023-07-31T00:17:16;7.70;;;1.37;;
5900;SDS011;2976;49.764;9.796;2023-07-31T00:19:42;7.67;;;1.93;;
5900;SDS011;2976;49.764;9.796;2023-07-31T00:22:08;4.43;;;1.67;;
5900;SDS011;2976;49.764;9.796;2023-07-31T00:24:33;5.23;;;1.43;;
5900;SDS011;2976;49.764;9.796;2023-07-31T00:26:59;2.87;;;1.57;;
5900;SDS011;2976;49.764;9.796;2023-07-31T00:29:25;3.53;;;1.60;;
5900;SDS011;2976;49.764;9.796;2023-07-31T00:31:50;5.00;;;1.30;;
5900;SDS011;2976;49.764;9.796;2023-07-31T00:34:16;2.20;;;1.50;;
5900;SDS011;2976;49.764;9.796;2023-07-31T00:36:41;4.60;;;1.80;;
5900;SDS011;2976;49.764;9.796;2023-07-31T00:39:07;4.43;;;2.00;;
5900;SDS011;2976;49.764;9.796;2023-07-31T00:41:32;5.07;;;1.63;;
5900;SDS011;2976;49.764;9.796;2023-07-31T00:43:58;5.83;;;2.23;;
5900;SDS011;2976;49.764;9.796;2023-07-31T00:46:23;4.23;;;1.50;;
5900;SDS011;2976;49.764;9.796;2023-07-31T00:48:49;3.90;;;1.37;;
5900;SDS011;2976;49.764;9.796;2023-07-31T00:51:15;7.03;;;2.00;;
5900;SDS011;2976;49.764;9.796;2023-07-31T00:53:41;1.90;;;1.30;;
5900;SDS011;2976;49.764;9.796;2023-07-31T00:56:07;3.00;;;1.40;;
5900;SDS011;2976;49.764;9.796;2023-07-31T00:58:33;7.43;;;1.60;;
5900;SDS011;2976;49.764;9.796;2023-07-31T01:00:59;3.97;;;1.60;;
5900;SDS011;2976;49.764;9.796;2023-07-31T01:03:24;5.33;;;1.60;;
5900;SDS011;2976;49.764;9.796;2023-07-31T01:06:36;1.80;;;1.20;;
5900;SDS011;2976;49.764;9.796;2023-07-31T01:08:43;3.63;;;1.40;;
5900;SDS011;2976;49.764;9.796;2023-07-31T01:11:29;3.27;;;1.40;;
5900;SDS011;2976;49.764;9.796;2023-07-31T01:13:58;6.43;;;1.90;;
5900;SDS011;2976;49.764;9.796;2023-07-31T01:16:25;7.40;;;1.87;;
5900;SDS011;2976;49.764;9.796;2023-07-31T01:18:51;4.90;;;1.70;;
5900;SDS011;2976;49.764;9.796;2023-07-31T01:21:41;4.13;;;1.83;;
5900;SDS011;2976;49.764;9.796;2023-07-31T01:27:23;2.57;;;1.73;;
5900;SDS011;2976;49.764;9.796;2023-07-31T01:29:59;5.70;;;1.87;;
5900;SDS011;2976;49.764;9.796;2023-07-31T01:32:35;1.63;;;1.40;;
5900;SDS011;2976;49.764;9.796;2023-07-31T01:35:04;3.00;;;1.63;;
5900;SDS011;2976;49.764;9.796;2023-07-31T01:37:30;5.57;;;1.50;;
5900;SDS011;2976;49.764;9.796;2023-07-31T01:39:56;6.87;;;1.57;;
5900;SDS011;2976;49.764;9.796;2023-07-31T01:42:21;4.30;;;1.60;;
5900;SDS011;2976;49.764;9.796;2023-07-31T01:44:47;5.90;;;1.57;;
5900;SDS011;2976;49.764;9.796;2023-07-31T01:47:12;5.80;;;1.37;;
5900;SDS011;2976;49.764;9.796;2023-07-31T01:49:38;4.90;;;1.97;;
5900;SDS011;2976;49.764;9.796;2023-07-31T01:52:04;3.10;;;1.60;;
5900;SDS011;2976;49.764;9.796;2023-07-31T01:54:29;3.60;;;1.60;;
5900;SDS011;2976;49.764;9.796;2023-07-31T01:56:55;8.83;;;1.60;;
5900;SDS011;2976;49.764;9.796;2023-07-31T01:59:21;5.67;;;1.53;;
5900;SDS011;2976;49.764;9.796;2023-07-31T02:01:46;4.80;;;1.63;;
5900;SDS011;2976;49.764;9.796;2023-07-31T02:04:12;8.23;;;2.00;;
5900;SDS011;2976;49.764;9.796;2023-07-31T02:06:37;1.80;;;1.27;;
5900;SDS011;2976;49.764;9.796;2023-07-31T02:09:04;5.13;;;2.07;;
5900;SDS011;2976;49.764;9.796;2023-07-31T02:11:29;3.10;;;1.43;;
5900;SDS011;2976;49.764;9.796;2023-07-31T02:13:55;2.73;;;1.30;;
5900;SDS011;2976;49.764;9.796;2023-07-31T02:16:20;3.70;;;1.40;;
5900;SDS011;2976;49.764;9.796;2023-07-31T02:18:46;3.87;;;2.00;;
5900;SDS011;2976;49.764;9.796;2023-07-31T02:21:11;6.90;;;1.87;;
5900;SDS011;2976;49.764;9.796;2023-07-31T02:23:37;1.60;;;1.33;;
5900;SDS011;2976;49.764;9.796;2023-07-31T02:26:02;9.93;;;1.50;;
5900;SDS011;2976;49.764;9.796;2023-07-31T02:28:28;3.33;;;1.57;;
5900;SDS011;2976;49.764;9.796;2023-07-31T02:30:54;8.40;;;2.20;;
5900;SDS011;2976;49.764;9.796;2023-07-31T02:33:20;4.63;;;1.67;;
5900;SDS011;2976;49.764;9.796;2023-07-31T02:35:45;6.63;;;1.80;;
5900;SDS011;2976;49.764;9.796;2023-07-31T02:38:11;2.97;;;1.40;;
5900;SDS011;2976;49.764;9.796;2023-07-31T02:40:37;7.50;;;2.07;;
5900;SDS011;2976;49.764;9.796;2023-07-31T02:43:02;4.87;;;2.07;;
5900;SDS011;2976;49.764;9.796;2023-07-31T02:45:28;7.07;;;3.43;;
5900;SDS011;2976;49.764;9.796;2023-07-31T02:47:53;4.53;;;1.43;;
5900;SDS011;2976;49.764;9.796;2023-07-31T02:50:19;5.27;;;2.17;;
5900;SDS011;2976;49.764;9.796;2023-07-31T02:52:44;6.17;;;1.53;;
5900;SDS011;2976;49.764;9.796;2023-07-31T02:55:10;5.33;;;2.00;;
5900;SDS011;2976;49.764;9.796;2023-07-31T02:57:36;2.30;;;1.43;;
5900;SDS011;2976;49.764;9.796;2023-07-31T03:00:01;3.33;;;1.80;;
5900;SDS011;2976;49.764;9.796;2023-07-31T03:02:30;6.87;;;2.07;;
5900;SDS011;2976;49.764;9.796;2023-07-31T03:04:56;4.70;;;1.90;;
5900;SDS011;2976;49.764;9.796;2023-07-31T03:07:21;4.13;;;1.57;;
5900;SDS011;2976;49.764;9.796;2023-07-31T03:09:47;12.53;;;2.00;;
5900;SDS011;2976;49.764;9.796;2023-07-31T03:12:12;4.33;;;1.57;;
5900;SDS011;2976;49.764;9.796;2023-07-31T03:14:38;5.60;;;1.73;;
5900;SDS011;2976;49.764;9.796;2023-07-31T03:17:03;2.67;;;2.00;;
5900;SDS011;2976;49.764;9.796;2023-07-31T03:19:32;4.70;;;1.77;;
5900;SDS011;2976;49.764;9.796;2023-07-31T03:21:58;6.17;;;2.20;;
5900;SDS011;2976;49.764;9.796;2023-07-31T03:24:24;7.53;;;1.87;;
5900;SDS011;2976;49.764;9.796;2023-07-31T03:26:50;6.40;;;2.07;;
5900;SDS011;2976;49.764;9.796;2023-07-31T03:29:16;4.90;;;1.70;;
5900;SDS011;2976;49.764;9.796;2023-07-31T03:31:41;5.70;;;2.23;;
5900;SDS011;2976;49.764;9.796;2023-07-31T03:34:07;3.33;;;2.13;;
5900;SDS011;2976;49.764;9.796;2023-07-31T03:36:32;4.07;;;1.90;;
5900;SDS011;2976;49.764;9.796;2023-07-31T03:38:58;3.73;;;2.10;;
5900;SDS011;2976;49.764;9.796;2023-07-31T03:41:24;3.90;;;2.03;;
5900;SDS011;2976;49.764;9.796;2023-07-31T03:43:49;5.63;;;1.60;;
5900;SDS011;2976;49.764;9.796;2023-07-31T03:46:20;6.23;;;1.70;;
5900;SDS011;2976;49.764;9.796;2023-07-31T03:48:47;4.07;;;1.63;;
5900;SDS011;2976;49.764;9.796;2023-07-31T03:51:13;4.00;;;2.10;;
5900;SDS011;2976;49.764;9.796;2023-07-31T03:53:38;5.40;;;2.00;;
5900;SDS011;2976;49.764;9.796;2023-07-31T03:56:04;3.37;;;1.93;;
5900;SDS011;2976;49.764;9.796;2023-07-31T03:58:29;4.13;;;1.43;;
5900;SDS011;2976;49.764;9.796;2023-07-31T04:00:55;4.30;;;1.87;;
5900;SDS011;2976;49.764;9.796;2023-07-31T04:03:20;10.30;;;1.93;;
5900;SDS011;2976;49.764;9.796;2023-07-31T04:05:46;5.90;;;1.87;;
5900;SDS011;2976;49.764;9.796;2023-07-31T04:08:12;3.00;;;1.70;;
5900;SDS011;2976;49.764;9.796;2023-07-31T04:10:37;8.70;;;2.17;;
5900;SDS011;2976;49.764;9.796;2023-07-31T04:13:03;2.70;;;1.70;;
5900;SDS011;2976;49.764;9.796;2023-07-31T04:15:28;5.00;;;2.27;;
5900;SDS011;2976;49.764;9.796;2023-07-31T04:17:54;5.00;;;1.80;;
5900;SDS011;2976;49.764;9.796;2023-07-31T04:20:19;2.57;;;1.70;;
5900;SDS011;2976;49.764;9.796;2023-07-31T04:22:45;3.90;;;1.63;;
5900;SDS011;2976;49.764;9.796;2023-07-31T04:25:11;5.30;;;2.20;;
5900;SDS011;2976;49.764;9.796;2023-07-31T04:27:36;5.77;;;2.73;;
5900;SDS011;2976;49.764;9.796;2023-07-31T04:30:02;8.23;;;2.00;;
5900;SDS011;2976;49.764;9.796;2023-07-31T04:32:28;2.77;;;1.70;;
5900;SDS011;2976;49.764;9.796;2023-07-31T04:34:54;6.30;;;2.13;;
5900;SDS011;2976;49.764;9.796;2023-07-31T04:37:20;6.60;;;2.40;;
5900;SDS011;2976;49.764;9.796;2023-07-31T04:39:46;6.33;;;2.30;;
5900;SDS011;2976;49.764;9.796;2023-07-31T04:42:12;4.10;;;2.20;;
5900;SDS011;2976;49.764;9.796;2023-07-31T04:44:37;3.00;;;1.80;;
5900;SDS011;2976;49.764;9.796;2023-07-31T04:47:03;7.43;;;2.80;;
5900;SDS011;2976;49.764;9.796;2023-07-31T04:49:29;3.27;;;2.10;;
5900;SDS011;2976;49.764;9.796;2023-07-31T04:51:54;6.93;;;2.33;;
5900;SDS011;2976;49.764;9.796;2023-07-31T04:54:20;9.33;;;2.10;;
5900;SDS011;2976;49.764;9.796;2023-07-31T04:56:45;8.63;;;2.60;;
5900;SDS011;2976;49.764;9.796;2023-07-31T04:59:12;6.90;;;3.57;;
5900;SDS011;2976;49.764;9.796;2023-07-31T05:01:38;11.60;;;2.23;;
5900;SDS011;2976;49.764;9.796;2023-07-31T05:04:03;11.03;;;1.67;;
5900;SDS011;2976;49.764;9.796;2023-07-31T05:06:29;6.70;;;2.07;;
5900;SDS011;2976;49.764;9.796;2023-07-31T05:08:54;2.70;;;1.73;;
5900;SDS011;2976;49.764;9.796;2023-07-31T05:11:20;3.53;;;1.73;;
5900;SDS011;2976;49.764;9.796;2023-07-31T05:13:45;7.03;;;2.00;;
5900;SDS011;2976;49.764;9.796;2023-07-31T05:16:11;4.07;;;1.70;;
5900;SDS011;2976;49.764;9.796;2023-07-31T05:18:37;6.20;;;2.27;;
5900;SDS011;2976;49.764;9.796;2023-07-31T05:21:02;3.50;;;1.60;;
5900;SDS011;2976;49.764;9.796;2023-07-31T05:23:28;4.00;;;2.00;;
5900;SDS011;2976;49.764;9.796;2023-07-31T05:25:54;3.13;;;1.67;;
5900;SDS011;2976;49.764;9.796;2023-07-31T05:28:21;3.80;;;1.83;;
5900;SDS011;2976;49.764;9.796;2023-07-31T05:30:46;4.50;;;2.30;;
5900;SDS011;2976;49.764;9.796;2023-07-31T05:33:12;3.83;;;2.30;;
5900;SDS011;2976;49.764;9.796;2023-07-31T05:35:37;3.77;;;2.10;;
5900;SDS011;2976;49.764;9.796;2023-07-31T05:38:03;4.00;;;1.83;;
5900;SDS011;2976;49.764;9.796;2023-07-31T05:40:31;4.07;;;1.57;;
5900;SDS011;2976;49.764;9.796;2023-07-31T05:42:58;10.53;;;1.50;;
5900;SDS011;2976;49.764;9.796;2023-07-31T05:45:24;6.10;;;1.70;;
5900;SDS011;2976;49.764;9.796;2023-07-31T05:47:50;5.90;;;2.00;;
5900;SDS011;2976;49.764;9.796;2023-07-31T05:50:16;2.60;;;1.70;;
5900;SDS011;2976;49.764;9.796;2023-07-31T05:52:41;4.77;;;2.23;;
5900;SDS011;2976;49.764;9.796;2023-07-31T05:55:07;8.83;;;2.57;;
5900;SDS011;2976;49.764;9.796;2023-07-31T05:57:33;6.53;;;2.10;;
5900;SDS011;2976;49.764;9.796;2023-07-31T05:59:58;3.60;;;2.00;;
5900;SDS011;2976;49.764;9.796;2023-07-31T06:02:24;7.50;;;2.20;;
5900;SDS011;2976;49.764;9.796;2023-07-31T06:04:50;2.60;;;1.67;;
5900;SDS011;2976;49.764;9.796;2023-07-31T06:07:15;1.83;;;1.63;;
5900;SDS011;2976;49.764;9.796;2023-07-31T06:09:41;8.83;;;1.80;;
5900;SDS011;2976;49.764;9.796;2023-07-31T06:12:06;1.73;;;1.60;;
5900;SDS011;2976;49.764;9.796;2023-07-31T06:14:32;5.10;;;1.73;;
5900;SDS011;2976;49.764;9.796;2023-07-31T06:16:58;5.03;;;1.90;;
5900;SDS011;2976;49.764;9.796;2023-07-31T06:19:23;4.27;;;1.87;;
5900;SDS011;2976;49.764;9.796;2023-07-31T06:21:49;4.90;;;2.30;;
5900;SDS011;2976;49.764;9.796;2023-07-31T06:24:14;2.30;;;2.10;;
5900;SDS011;2976;49.764;9.796;2023-07-31T06:26:44;4.93;;;2.33;;
5900;SDS011;2976;49.764;9.796;2023-07-31T06:29:09;6.07;;;1.93;;
5900;SDS011;2976;49.764;9.796;2023-07-31T06:31:35;3.60;;;2.13;;
5900;SDS011;2976;49.764;9.796;2023-07-31T06:34:00;3.37;;;1.87;;
5900;SDS011;2976;49.764;9.796;2023-07-31T06:36:26;5.40;;;2.03;;
5900;SDS011;2976;49.764;9.796;2023-07-31T06:38:52;7.70;;;2.30;;
5900;SDS011;2976;49.764;9.796;2023-07-31T06:41:17;6.40;;;2.00;;
5900;SDS011;2976;49.764;9.796;2023-07-31T06:43:43;10.30;;;2.00;;
5900;SDS011;2976;49.764;9.796;2023-07-31T06:46:08;5.83;;;1.80;;
5900;SDS011;2976;49.764;9.796;2023-07-31T06:48:34;3.33;;;1.93;;
5900;SDS011;2976;49.764;9.796;2023-07-31T06:51:02;1.97;;;1.70;;
5900;SDS011;2976;49.764;9.796;2023-07-31T06:53:28;5.30;;;2.30;;
5900;SDS011;2976;49.764;9.796;2023-07-31T06:55:54;8.90;;;2.23;;
5900;SDS011;2976;49.764;9.796;2023-07-31T06:58:19;3.83;;;2.53;;
5900;SDS011;2976;49.764;9.796;2023-07-31T07:00:45;13.77;;;2.20;;
5900;SDS011;2976;49.764;9.796;2023-07-31T07:03:10;4.40;;;1.80;;
5900;SDS011;2976;49.764;9.796;2023-07-31T07:05:36;3.20;;;1.60;;
5900;SDS011;2976;49.764;9.796;2023-07-31T07:08:02;5.17;;;2.20;;
5900;SDS011;2976;49.764;9.796;2023-07-31T07:10:27;4.63;;;1.77;;
5900;SDS011;2976;49.764;9.796;2023-07-31T07:12:53;7.10;;;1.83;;
5900;SDS011;2976;49.764;9.796;2023-07-31T07:15:20;6.80;;;2.00;;
5900;SDS011;2976;49.764;9.796;2023-07-31T07:17:46;7.00;;;2.63;;
5900;SDS011;2976;49.764;9.796;2023-07-31T07:20:11;5.30;;;2.30;;
5900;SDS011;2976;49.764;9.796;2023-07-31T07:22:37;7.10;;;2.63;;
5900;SDS011;2976;49.764;9.796;2023-07-31T07:25:03;4.67;;;2.23;;
5900;SDS011;2976;49.764;9.796;2023-07-31T07:27:30;7.57;;;2.20;;
5900;SDS011;2976;49.764;9.796;2023-07-31T07:29:55;4.27;;;1.83;;
5900;SDS011;2976;49.764;9.796;2023-07-31T07:32:21;3.53;;;1.70;;
5900;SDS011;2976;49.764;9.796;2023-07-31T07:34:47;10.33;;;2.57;;
5900;SDS011;2976;49.764;9.796;2023-07-31T07:37:13;6.87;;;1.90;;
5900;SDS011;2976;49.764;9.796;2023-07-31T07:39:39;5.53;;;2.33;;
5900;SDS011;2976;49.764;9.796;2023-07-31T07:42:05;5.57;;;2.07;;
5900;SDS011;2976;49.764;9.796;2023-07-31T07:44:30;7.87;;;2.23;;
5900;SDS011;2976;49.764;9.796;2023-07-31T07:46:56;6.33;;;2.53;;
5900;SDS011;2976;49.764;9.796;2023-07-31T07:49:22;7.43;;;2.20;;
5900;SDS011;2976;49.764;9.796;2023-07-31T07:51:48;5.90;;;2.10;;
5900;SDS011;2976;49.764;9.796;2023-07-31T07:54:14;4.30;;;1.80;;
5900;SDS011;2976;49.764;9.796;2023-07-31T07:56:41;7.60;;;1.93;;
5900;SDS011;2976;49.764;9.796;2023-07-31T07:59:07;7.20;;;2.97;;
5900;SDS011;2976;49.764;9.796;2023-07-31T08:01:33;3.10;;;1.97;;
5900;SDS011;2976;49.764;9.796;2023-07-31T08:03:58;2.50;;;1.77;;
5900;SDS011;2976;49.764;9.796;2023-07-31T08:06:24;8.17;;;2.87;;
5900;SDS011;2976;49.764;9.796;2023-07-31T08:08:49;4.60;;;2.50;;
5900;SDS011;2976;49.764;9.796;2023-07-31T08:11:15;8.37;;;2.60;;
5900;SDS011;2976;49.764;9.796;2023-07-31T08:13:41;6.50;;;2.50;;
5900;SDS011;2976;49.764;9.796;2023-07-31T08:16:06;10.03;;;2.20;;
5900;SDS011;2976;49.764;9.796;2023-07-31T08:18:32;4.40;;;1.90;;
5900;SDS011;2976;49.764;9.796;2023-07-31T08:20:58;6.87;;;2.17;;
5900;SDS011;2976;49.764;9.796;2023-07-31T08:23:23;3.23;;;2.30;;
5900;SDS011;2976;49.764;9.796;2023-07-31T08:25:49;5.43;;;2.30;;
5900;SDS011;2976;49.764;9.796;2023-07-31T08:28:15;9.83;;;2.57;;
5900;SDS011;2976;49.764;9.796;2023-07-31T08:30:41;2.30;;;1.80;;
5900;SDS011;2976;49.764;9.796;2023-07-31T08:33:07;4.70;;;2.20;;
5900;SDS011;2976;49.764;9.796;2023-07-31T08:35:33;5.60;;;2.00;;
5900;SDS011;2976;49.764;9.796;2023-07-31T08:37:58;4.40;;;2.10;;
5900;SDS011;2976;49.764;9.796;2023-07-31T08:40:24;7.07;;;2.00;;
5900;SDS011;2976;49.764;9.796;2023-07-31T08:42:53;4.60;;;2.20;;
5900;SDS011;2976;49.764;9.796;2023-07-31T08:45:21;5.50;;;2.50;;
5900;SDS011;2976;49.764;9.796;2023-07-31T08:47:51;5.23;;;1.70;;
5900;SDS011;2976;49.764;9.796;2023-07-31T08:50:18;3.03;;;1.73;;
5900;SDS011;2976;49.764;9.796;2023-07-31T08:52:45;6.40;;;2.00;;
5900;SDS011;2976;49.764;9.796;2023-07-31T08:55:12;7.07;;;3.33;;
5900;SDS011;2976;49.764;9.796;2023-07-31T08:57:38;3.37;;;2.20;;
5900;SDS011;2976;49.764;9.796;2023-07-31T09:00:04;7.30;;;2.50;;
5900;SDS011;2976;49.764;9.796;2023-07-31T09:02:34;5.93;;;2.27;;
5900;SDS011;2976;49.764;9.796;2023-07-31T09:05:01;6.73;;;2.30;;
5900;SDS011;2976;49.764;9.796;2023-07-31T09:07:27;6.40;;;2.20;;
5900;SDS011;2976;49.764;9.796;2023-07-31T09:09:55;5.80;;;2.40;;
5900;SDS011;2976;49.764;9.796;2023-07-31T09:12:20;6.10;;;2.47;;
5900;SDS011;2976;49.764;9.796;2023-07-31T09:14:46;4.97;;;2.30;;
5900;SDS011;2976;49.764;9.796;2023-07-31T09:17:12;2.73;;;1.93;;
5900;SDS011;2976;49.764;9.796;2023-07-31T09:19:37;3.33;;;2.60;;
5900;SDS011;2976;49.764;9.796;2023-07-31T09:22:04;2.10;;;1.80;;
5900;SDS011;2976;49.764;9.796;2023-07-31T09:24:34;5.63;;;1.90;;
5900;SDS011;2976;49.764;9.796;2023-07-31T09:27:00;4.13;;;2.83;;
5900;SDS011;2976;49.764;9.796;2023-07-31T09:29:28;5.83;;;2.27;;
5900;SDS011;2976;49.764;9.796;2023-07-31T09:31:54;4.20;;;2.33;;
5900;SDS011;2976;49.764;9.796;2023-07-31T09:34:20;2.93;;;2.30;;
5900;SDS011;2976;49.764;9.796;2023-07-31T09:37:03;4.83;;;2.23;;
5900;SDS011;2976;49.764;9.796;2023-07-31T09:39:30;4.27;;;2.70;;
5900;SDS011;2976;49.764;9.796;2023-07-31T09:41:56;3.43;;;2.33;;
5900;SDS011;2976;49.764;9.796;2023-07-31T09:44:28;5.17;;;2.10;;
5900;SDS011;2976;49.764;9.796;2023-07-31T09:47:04;5.23;;;2.23;;
5900;SDS011;2976;49.764;9.796;2023-07-31T09:49:30;4.33;;;2.30;;
5900;SDS011;2976;49.764;9.796;2023-07-31T09:51:55;4.93;;;2.10;;
5900;SDS011;2976;49.764;9.796;2023-07-31T09:54:21;4.83;;;2.40;;
5900;SDS011;2976;49.764;9.796;2023-07-31T09:56:47;4.67;;;2.50;;
5900;SDS011;2976;49.764;9.796;2023-07-31T09:59:14;5.93;;;2.37;;
5900;SDS011;2976;49.764;9.796;2023-07-31T10:01:43;4.00;;;2.00;;
5900;SDS011;2976;49.764;9.796;2023-07-31T10:04:11;2.73;;;2.20;;
5900;SDS011;2976;49.764;9.796;2023-07-31T10:06:38;6.00;;;2.50;;
5900;SDS011;2976;49.764;9.796;2023-07-31T10:09:11;9.47;;;2.00;;
5900;SDS011;2976;49.764;9.796;2023-07-31T10:11:41;3.73;;;2.00;;
5900;SDS011;2976;49.764;9.796;2023-07-31T10:14:10;3.60;;;2.30;;
5900;SDS011;2976;49.764;9.796;2023-07-31T10:16:37;3.83;;;2.40;;
5900;SDS011;2976;49.764;9.796;2023-07-31T10:19:04;10.73;;;2.63;;
5900;SDS011;2976;49.764;9.796;2023-07-31T10:21:31;7.03;;;2.40;;
5900;SDS011;2976;49.764;9.796;2023-07-31T10:24:02;5.50;;;2.23;;
5900;SDS011;2976;49.764;9.796;2023-07-31T10:26:29;6.53;;;2.33;;
5900;SDS011;2976;49.764;9.796;2023-07-31T10:28:56;6.30;;;2.07;;
5900;SDS011;2976;49.764;9.796;2023-07-31T10:31:23;7.80;;;2.27;;
5900;SDS011;2976;49.764;9.796;2023-07-31T10:33:49;9.10;;;2.77;;
5900;SDS011;2976;49.764;9.796;2023-07-31T10:36:17;3.73;;;2.30;;
5900;SDS011;2976;49.764;9.796;2023-07-31T10:38:44;9.13;;;2.30;;
5900;SDS011;2976;49.764;9.796;2023-07-31T10:41:10;5.87;;;2.70;;
5900;SDS011;2976;49.764;9.796;2023-07-31T10:43:37;5.80;;;2.60;;
5900;SDS011;2976;49.764;9.796;2023-07-31T10:46:06;3.00;;;2.13;;
5900;SDS011;2976;49.764;9.796;2023-07-31T10:48:34;4.83;;;2.20;;
5900;SDS011;2976;49.764;9.796;2023-07-31T10:51:02;7.80;;;2.37;;
5900;SDS011;2976;49.764;9.796;2023-07-31T10:53:33;3.30;;;2.10;;
5900;SDS011;2976;49.764;9.796;2023-07-31T10:56:00;4.40;;;2.27;;
5900;SDS011;2976;49.764;9.796;2023-07-31T10:58:30;3.77;;;2.40;;
5900;SDS011;2976;49.764;9.796;2023-07-31T11:00:57;7.00;;;2.50;;
5900;SDS011;2976;49.764;9.796;2023-07-31T11:03:25;5.70;;;2.30;;
5900;SDS011;2976;49.764;9.796;2023-07-31T11:08:24;4.00;;;2.20;;
5900;SDS011;2976;49.764;9.796;2023-07-31T11:16:07;3.63;;;2.33;;
5900;SDS011;2976;49.764;9.796;2023-07-31T11:18:34;8.23;;;2.67;;
5900;SDS011;2976;49.764;9.796;2023-07-31T11:21:00;8.40;;;2.37;;
5900;SDS011;2976;49.764;9.796;2023-07-31T11:23:25;4.10;;;2.27;;
5900;SDS011;2976;49.764;9.796;2023-07-31T11:25:51;3.23;;;2.30;;
5900;SDS011;2976;49.764;9.796;2023-07-31T11:28:17;5.47;;;2.27;;
5900;SDS011;2976;49.764;9.796;2023-07-31T11:30:44;2.87;;;2.10;;
5900;SDS011;2976;49.764;9.796;2023-07-31T11:33:11;4.07;;;2.60;;
5900;SDS011;2976;49.764;9.796;2023-07-31T11:35:43;3.60;;;2.10;;
5900;SDS011;2976;49.764;9.796;2023-07-31T11:38:11;10.27;;;2.90;;
5900;SDS011;2976;49.764;9.796;2023-07-31T11:40:44;6.70;;;2.80;;
5900;SDS011;2976;49.764;9.796;2023-07-31T11:43:10;3.00;;;2.30;;
5900;SDS011;2976;49.764;9.796;2023-07-31T11:45:41;3.83;;;2.03;;
5900;SDS011;2976;49.764;9.796;2023-07-31T11:48:06;5.10;;;2.23;;
5900;SDS011;2976;49.764;9.796;2023-07-31T11:50:33;7.17;;;2.40;;
5900;SDS011;2976;49.764;9.796;2023-07-31T11:53:00;4.90;;;2.60;;
5900;SDS011;2976;49.764;9.796;2023-07-31T11:55:32;9.83;;;2.50;;
5900;SDS011;2976;49.764;9.796;2023-07-31T11:57:58;10.83;;;3.20;;
5900;SDS011;2976;49.764;9.796;2023-07-31T12:00:25;7.10;;;2.80;;
5900;SDS011;2976;49.764;9.796;2023-07-31T12:02:52;4.63;;;3.07;;
5900;SDS011;2976;49.764;9.796;2023-07-31T12:05:18;6.07;;;3.07;;
5900;SDS011;2976;49.764;9.796;2023-07-31T12:07:50;8.83;;;2.83;;
5900;SDS011;2976;49.764;9.796;2023-07-31T12:10:27;9.63;;;2.50;;
5900;SDS011;2976;49.764;9.796;2023-07-31T12:13:04;9.60;;;3.10;;
5900;SDS011;2976;49.764;9.796;2023-07-31T12:15:39;10.13;;;2.27;;
5900;SDS011;2976;49.764;9.796;2023-07-31T12:18:05;12.33;;;3.00;;
5900;SDS011;2976;49.764;9.796;2023-07-31T12:20:33;6.33;;;3.30;;
5900;SDS011;2976;49.764;9.796;2023-07-31T12:22:59;4.07;;;2.80;;
5900;SDS011;2976;49.764;9.796;2023-07-31T12:25:28;3.13;;;2.10;;
5900;SDS011;2976;49.764;9.796;2023-07-31T12:27:57;5.37;;;2.63;;
5900;SDS011;2976;49.764;9.796;2023-07-31T12:30:32;4.57;;;2.80;;
5900;SDS011;2976;49.764;9.796;2023-07-31T12:33:05;5.70;;;2.70;;
5900;SDS011;2976;49.764;9.796;2023-07-31T12:35:39;3.90;;;2.77;;
5900;SDS011;2976;49.764;9.796;2023-07-31T12:38:09;6.87;;;2.50;;
5900;SDS011;2976;49.764;9.796;2023-07-31T12:40:38;8.70;;;3.00;;
5900;SDS011;2976;49.764;9.796;2023-07-31T12:43:05;8.47;;;2.93;;
5900;SDS011;2976;49.764;9.796;2023-07-31T12:45:32;4.93;;;3.10;;
5900;SDS011;2976;49.764;9.796;2023-07-31T12:47:58;6.53;;;3.03;;
5900;SDS011;2976;49.764;9.796;2023-07-31T12:50:24;6.60;;;3.20;;
5900;SDS011;2976;49.764;9.796;2023-07-31T12:52:50;7.57;;;3.27;;
5900;SDS011;2976;49.764;9.796;2023-07-31T12:55:16;8.83;;;3.30;;
5900;SDS011;2976;49.764;9.796;2023-07-31T12:57:43;7.40;;;2.77;;
5900;SDS011;2976;49.764;9.796;2023-07-31T13:00:09;6.37;;;2.60;;
5900;SDS011;2976;49.764;9.796;2023-07-31T13:02:35;14.03;;;2.63;;
5900;SDS011;2976;49.764;9.796;2023-07-31T13:05:00;6.43;;;2.60;;
5900;SDS011;2976;49.764;9.796;2023-07-31T13:07:26;9.53;;;3.10;;
5900;SDS011;2976;49.764;9.796;2023-07-31T13:09:52;5.87;;;3.37;;
5900;SDS011;2976;49.764;9.796;2023-07-31T13:12:17;9.10;;;2.90;;
5900;SDS011;2976;49.764;9.796;2023-07-31T13:14:43;9.10;;;3.13;;
5900;SDS011;2976;49.764;9.796;2023-07-31T13:17:08;5.37;;;2.57;;
5900;SDS011;2976;49.764;9.796;2023-07-31T13:19:34;6.50;;;2.30;;
5900;SDS011;2976;49.764;9.796;2023-07-31T13:22:00;5.50;;;3.10;;
5900;SDS011;2976;49.764;9.796;2023-07-31T13:24:25;6.70;;;2.80;;
5900;SDS011;2976;49.764;9.796;2023-07-31T13:26:51;5.57;;;2.60;;
5900;SDS011;2976;49.764;9.796;2023-07-31T13:29:16;4.27;;;2.70;;
5900;SDS011;2976;49.764;9.796;2023-07-31T13:31:42;7.20;;;3.10;;
5900;SDS011;2976;49.764;9.796;2023-07-31T13:34:07;2.63;;;2.27;;
5900;SDS011;2976;49.764;9.796;2023-07-31T13:36:33;4.03;;;2.90;;
5900;SDS011;2976;49.764;9.796;2023-07-31T13:38:59;7.50;;;2.40;;
5900;SDS011;2976;49.764;9.796;2023-07-31T13:41:25;5.73;;;2.80;;
5900;SDS011;2976;49.764;9.796;2023-07-31T13:43:51;3.33;;;2.50;;
5900;SDS011;2976;49.764;9.796;2023-07-31T13:46:16;6.43;;;2.87;;
5900;SDS011;2976;49.764;9.796;2023-07-31T13:48:42;6.77;;;2.90;;
5900;SDS011;2976;49.764;9.796;2023-07-31T13:51:07;2.87;;;2.53;;
5900;SDS011;2976;49.764;9.796;2023-07-31T13:53:33;7.43;;;3.37;;
5900;SDS011;2976;49.764;9.796;2023-07-31T13:55:59;6.53;;;2.90;;
5900;SDS011;2976;49.764;9.796;2023-07-31T13:58:25;4.00;;;2.87;;
5900;SDS011;2976;49.764;9.796;2023-07-31T14:00:51;4.50;;;2.27;;
5900;SDS011;2976;49.764;9.796;2023-07-31T14:03:17;5.90;;;2.30;;
5900;SDS011;2976;49.764;9.796;2023-07-31T14:05:42;9.93;;;2.60;;
5900;SDS011;2976;49.764;9.796;2023-07-31T14:08:08;10.80;;;2.67;;
5900;SDS011;2976;49.764;9.796;2023-07-31T14:10:33;3.93;;;2.40;;
5900;SDS011;2976;49.764;9.796;2023-07-31T14:12:59;4.43;;;2.37;;
5900;SDS011;2976;49.764;9.796;2023-07-31T14:15:24;8.23;;;2.60;;
5900;SDS011;2976;49.764;9.796;2023-07-31T14:17:50;4.00;;;2.30;;
5900;SDS011;2976;49.764;9.796;2023-07-31T14:20:15;5.67;;;2.37;;
5900;SDS011;2976;49.764;9.796;2023-07-31T14:22:41;4.93;;;2.70;;
5900;SDS011;2976;49.764;9.796;2023-07-31T14:25:07;6.50;;;2.40;;
5900;SDS011;2976;49.764;9.796;2023-07-31T14:27:35;6.17;;;2.90;;
5900;SDS011;2976;49.764;9.796;2023-07-31T14:30:01;6.73;;;2.83;;
5900;SDS011;2976;49.764;9.796;2023-07-31T14:32:27;5.03;;;2.67;;
5900;SDS011;2976;49.764;9.796;2023-07-31T14:34:52;6.33;;;2.23;;
5900;SDS011;2976;49.764;9.796;2023-07-31T14:37:19;4.50;;;2.60;;
5900;SDS011;2976;49.764;9.796;2023-07-31T14:39:45;3.83;;;1.50;;
5900;SDS011;2976;49.764;9.796;2023-07-31T14:42:10;4.33;;;2.50;;
5900;SDS011;2976;49.764;9.796;2023-07-31T14:44:36;6.53;;;2.27;;
5900;SDS011;2976;49.764;9.796;2023-07-31T14:47:01;3.67;;;2.53;;
5900;SDS011;2976;49.764;9.796;2023-07-31T14:49:27;4.90;;;2.60;;
5900;SDS011;2976;49.764;9.796;2023-07-31T14:51:53;6.07;;;2.40;;
5900;SDS011;2976;49.764;9.796;2023-07-31T14:54:19;8.63;;;2.90;;
5900;SDS011;2976;49.764;9.796;2023-07-31T14:56:44;6.60;;;2.97;;
5900;SDS011;2976;49.764;9.796;2023-07-31T14:59:10;6.67;;;2.90;;
5900;SDS011;2976;49.764;9.796;2023-07-31T15:01:36;4.70;;;2.87;;
5900;SDS011;2976;49.764;9.796;2023-07-31T15:04:02;4.30;;;2.80;;
5900;SDS011;2976;49.764;9.796;2023-07-31T15:06:28;3.27;;;2.57;;
5900;SDS011;2976;49.764;9.796;2023-07-31T15:08:53;8.90;;;3.27;;
5900;SDS011;2976;49.764;9.796;2023-07-31T15:11:19;6.60;;;3.07;;
5900;SDS011;2976;49.764;9.796;2023-07-31T15:13:45;3.80;;;2.60;;
5900;SDS011;2976;49.764;9.796;2023-07-31T15:16:10;5.23;;;2.43;;
5900;SDS011;2976;49.764;9.796;2023-07-31T15:18:36;4.80;;;2.47;;
5900;SDS011;2976;49.764;9.796;2023-07-31T15:21:01;9.30;;;2.87;;